Vielsalm, Belgium
Current Conditions -  °F | °C
As of 4:22 AM on Sunday 21 Dec 2014 (Local Time) from EBLB Reporting Station
Broken Clouds Broken Clouds  
Wind Chill: 32°   Ceiling: 800
Heat Index: 37°   Visibility: 6mi
Dew Point: 36°   Wind: 7mph
Humidity: 93%   Direction: 270°W
Pressure: 30.39"   Gusts: NA
Location:  50.28°N, 5.92°E
Report Text: EBLB 210322Z AUTO 27006KT 9999 SCT005/// BKN008/// BKN010/// 03/02 Q1029 YLO
Loading
Personal Weather Stations






























Interactive Weather Map New forecast layout! Learn more

10-Day Weather Forecast

Advertisements
Track Severe Weather on mobile